Time;durP1;ratioP1;P1;durP2;ratioP2;P2;SDS_P1;SDS_P2;PMS_P1;PMS_P2;Temp;Humidity;BMP_temperature;BMP_pressure;BME280_temperature;BME280_humidity;BME280_pressure;Samples;Min_cycle;Max_cycle;Signal;HPM_P1;HPM_P2
2023/01/19 00:01:59;;;;;;;14.32;10.23;;;;;;;;;;5052931;28;20048;-68
2023/01/19 00:04:25;;;;;;;13.73;10.38;;;;;;;;;;5050284;28;20056;-67
2023/01/19 00:06:51;;;;;;;13.57;9.68;;;;;;;;;;5053752;28;20587;-67
2023/01/19 00:09:17;;;;;;;15.85;10.02;;;;;;;;;;5053106;28;20040;-67
2023/01/19 00:11:43;;;;;;;13.40;9.50;;;;;;;;;;5040602;28;20098;-67
2023/01/19 00:14:09;;;;;;;11.65;9.07;;;;;;;;;;5053590;28;20045;-67
2023/01/19 00:16:35;;;;;;;9.23;7.20;;;;;;;;;;5053911;28;20044;-67
2023/01/19 00:19:01;;;;;;;9.30;7.57;;;;;;;;;;5049261;28;20043;-67
2023/01/19 00:21:27;;;;;;;11.45;8.68;;;;;;;;;;5058102;28;20119;-67
2023/01/19 00:23:53;;;;;;;13.18;9.35;;;;;;;;;;5055646;28;20182;-67
2023/01/19 00:26:20;;;;;;;11.95;7.95;;;;;;;;;;5053493;28;20094;-67
2023/01/19 00:28:48;;;;;;;9.70;7.55;;;;;;;;;;5052953;28;20055;-67
2023/01/19 00:31:14;;;;;;;8.73;6.93;;;;;;;;;;5054498;28;20086;-67
2023/01/19 00:33:40;;;;;;;10.25;7.20;;;;;;;;;;5054890;28;20068;-67
2023/01/19 00:36:06;;;;;;;9.60;6.70;;;;;;;;;;5053637;28;20044;-67
2023/01/19 00:38:32;;;;;;;8.52;5.90;;;;;;;;;;5051698;28;20152;-67
2023/01/19 00:40:58;;;;;;;6.63;5.03;;;;;;;;;;5050622;28;20721;-66
2023/01/19 00:43:24;;;;;;;5.57;5.00;;;;;;;;;;5052883;28;20045;-66
2023/01/19 00:45:50;;;;;;;6.55;5.20;;;;;;;;;;5053102;28;20049;-66
2023/01/19 00:48:16;;;;;;;4.22;3.80;;;;;;;;;;5049782;28;20037;-66
2023/01/19 00:50:42;;;;;;;5.32;4.40;;;;;;;;;;5050676;28;20114;-67
2023/01/19 00:53:08;;;;;;;5.60;4.57;;;;;;;;;;5051274;28;20071;-67
2023/01/19 00:55:34;;;;;;;6.18;5.10;;;;;;;;;;5052439;28;20037;-67
2023/01/19 00:58:01;;;;;;;5.18;3.90;;;;;;;;;;5051208;28;20037;-67
2023/01/19 01:00:27;;;;;;;5.88;5.28;;;;;;;;;;5052161;28;20491;-66
2023/01/19 01:02:54;;;;;;;5.63;4.70;;;;;;;;;;5055222;28;20045;-66
2023/01/19 01:05:20;;;;;;;6.78;5.82;;;;;;;;;;5052217;28;20505;-66
2023/01/19 01:07:48;;;;;;;6.15;5.30;;;;;;;;;;5052311;28;20074;-67
2023/01/19 01:10:18;;;;;;;6.90;6.20;;;;;;;;;;5049375;28;20124;-67
2023/01/19 01:12:45;;;;;;;7.13;6.20;;;;;;;;;;5050472;28;20033;-67
2023/01/19 01:15:13;;;;;;;8.95;7.07;;;;;;;;;;5052678;28;20036;-67
2023/01/19 01:17:46;;;;;;;8.38;7.43;;;;;;;;;;5050985;28;20324;-67
2023/01/19 01:20:16;;;;;;;11.65;8.25;;;;;;;;;;5052120;28;20045;-67
2023/01/19 01:22:44;;;;;;;10.55;8.45;;;;;;;;;;5048752;28;20051;-67
2023/01/19 01:25:11;;;;;;;10.98;8.43;;;;;;;;;;5050243;28;20048;-67
2023/01/19 01:27:37;;;;;;;11.23;9.32;;;;;;;;;;5051480;28;20037;-66
2023/01/19 01:30:04;;;;;;;12.45;9.55;;;;;;;;;;5044306;28;20398;-66
2023/01/19 01:32:30;;;;;;;11.48;8.75;;;;;;;;;;5055846;28;20128;-67
2023/01/19 01:34:56;;;;;;;13.30;10.18;;;;;;;;;;5050487;28;20043;-66
2023/01/19 01:37:22;;;;;;;12.05;10.10;;;;;;;;;;5050352;28;20041;-66
2023/01/19 01:39:48;;;;;;;13.82;9.93;;;;;;;;;;5051922;28;20033;-67
2023/01/19 01:42:16;;;;;;;14.23;9.57;;;;;;;;;;5052140;28;20044;-67
2023/01/19 01:44:49;;;;;;;13.60;10.45;;;;;;;;;;5050689;28;20412;-67
2023/01/19 01:47:17;;;;;;;14.88;10.10;;;;;;;;;;5049627;28;20590;-67
2023/01/19 01:49:43;;;;;;;13.30;10.52;;;;;;;;;;5050438;28;20037;-66
2023/01/19 01:52:10;;;;;;;15.20;11.15;;;;;;;;;;5054516;28;20037;-67
2023/01/19 01:54:35;;;;;;;14.18;10.68;;;;;;;;;;5051908;28;20037;-67
2023/01/19 01:57:04;;;;;;;13.25;10.00;;;;;;;;;;5050600;28;20033;-67
2023/01/19 01:59:37;;;;;;;15.85;10.60;;;;;;;;;;5053695;28;20120;-67
2023/01/19 02:04:56;;;;;;;15.32;10.80;;;;;;;;;;5050826;28;20051;-66
2023/01/19 02:15:40;;;;;;;16.15;9.38;;;;;;;;;;5049147;28;20041;-66
2023/01/19 02:18:06;;;;;;;17.08;12.55;;;;;;;;;;5048861;28;20083;-67
2023/01/19 02:20:33;;;;;;;15.57;11.38;;;;;;;;;;5050166;28;20037;-66
2023/01/19 02:23:02;;;;;;;17.58;13.32;;;;;;;;;;5052034;28;20106;-67
2023/01/19 02:25:28;;;;;;;18.15;12.77;;;;;;;;;;5051897;28;20376;-66
2023/01/19 02:27:54;;;;;;;12.15;9.10;;;;;;;;;;5048209;28;20665;-66
2023/01/19 02:30:21;;;;;;;19.33;11.40;;;;;;;;;;5048200;28;20119;-66
2023/01/19 02:32:46;;;;;;;17.80;11.98;;;;;;;;;;5050902;28;20048;-67
2023/01/19 02:35:13;;;;;;;14.70;10.48;;;;;;;;;;5050597;28;20041;-67
2023/01/19 02:37:40;;;;;;;18.05;12.05;;;;;;;;;;5048124;28;20142;-67
2023/01/19 02:40:10;;;;;;;17.27;11.57;;;;;;;;;;5047329;28;20102;-67
2023/01/19 02:42:39;;;;;;;14.90;11.45;;;;;;;;;;5029539;28;20120;-66
2023/01/19 02:45:08;;;;;;;16.08;11.43;;;;;;;;;;5043921;28;20123;-67
2023/01/19 02:47:38;;;;;;;12.70;9.30;;;;;;;;;;5048703;28;20041;-67
2023/01/19 02:50:05;;;;;;;14.43;10.50;;;;;;;;;;5042929;28;20418;-67
2023/01/19 02:52:31;;;;;;;16.17;11.77;;;;;;;;;;5049609;28;20718;-66
2023/01/19 02:55:06;;;;;;;17.05;11.93;;;;;;;;;;5076732;22;20044;-62
2023/01/19 02:57:38;;;;;;;17.73;12.52;;;;;;;;;;5086599;28;20032;-62
2023/01/19 03:00:23;;;;;;;17.48;12.20;;;;;;;;;;5087816;28;20047;-61
2023/01/19 03:02:59;;;;;;;17.42;12.35;;;;;;;;;;5087412;28;20146;-61
2023/01/19 03:05:43;;;;;;;18.17;13.30;;;;;;;;;;5073367;28;20547;-62
2023/01/19 03:08:09;;;;;;;21.20;14.20;;;;;;;;;;5069973;28;20044;-62
2023/01/19 03:10:40;;;;;;;19.40;13.02;;;;;;;;;;5069817;28;20552;-62
2023/01/19 03:13:11;;;;;;;24.33;15.15;;;;;;;;;;5069371;28;20044;-62
2023/01/19 03:15:42;;;;;;;19.58;13.85;;;;;;;;;;5070485;28;20090;-62
2023/01/19 03:18:10;;;;;;;22.23;14.75;;;;;;;;;;5063014;28;20086;-62
2023/01/19 03:20:36;;;;;;;22.88;14.00;;;;;;;;;;5069148;28;20029;-62
2023/01/19 03:23:04;;;;;;;20.75;13.82;;;;;;;;;;5060770;28;20563;-62
2023/01/19 03:25:33;;;;;;;20.70;13.68;;;;;;;;;;5069872;28;20112;-62
2023/01/19 03:27:59;;;;;;;22.60;15.07;;;;;;;;;;5067563;28;20490;-62
2023/01/19 03:30:30;;;;;;;20.45;13.73;;;;;;;;;;5071017;28;20449;-62
2023/01/19 03:33:01;;;;;;;19.73;13.55;;;;;;;;;;5069986;28;20075;-62
2023/01/19 03:35:30;;;;;;;21.25;14.23;;;;;;;;;;5067819;28;20077;-62
2023/01/19 03:37:58;;;;;;;20.17;13.98;;;;;;;;;;5068081;28;20025;-62
2023/01/19 03:40:27;;;;;;;19.25;12.80;;;;;;;;;;5070933;28;20037;-62
2023/01/19 03:42:53;;;;;;;18.85;13.05;;;;;;;;;;5068498;28;20044;-62
2023/01/19 03:45:20;;;;;;;18.88;12.73;;;;;;;;;;5069689;28;20127;-62
2023/01/19 03:47:46;;;;;;;14.90;10.60;;;;;;;;;;5071441;28;20411;-62
2023/01/19 03:50:14;;;;;;;18.50;12.98;;;;;;;;;;5071883;28;20044;-63
2023/01/19 03:52:40;;;;;;;18.67;13.40;;;;;;;;;;5072174;28;20047;-63
2023/01/19 03:55:06;;;;;;;16.27;11.68;;;;;;;;;;5073869;28;20029;-62
2023/01/19 03:57:32;;;;;;;16.58;12.07;;;;;;;;;;5072143;28;20418;-63
2023/01/19 03:59:58;;;;;;;16.05;12.05;;;;;;;;;;5071036;28;20039;-63
2023/01/19 04:02:24;;;;;;;15.13;11.68;;;;;;;;;;5074027;28;20040;-63
2023/01/19 04:04:50;;;;;;;18.67;13.32;;;;;;;;;;5070927;28;20045;-63
2023/01/19 04:07:16;;;;;;;15.38;10.57;;;;;;;;;;5073288;28;20516;-63
2023/01/19 04:09:42;;;;;;;14.40;10.27;;;;;;;;;;5071241;28;20040;-62
2023/01/19 04:12:08;;;;;;;14.77;10.50;;;;;;;;;;5071984;28;20037;-62
2023/01/19 04:14:34;;;;;;;12.63;9.80;;;;;;;;;;5073006;28;20095;-62
2023/01/19 04:17:00;;;;;;;15.25;10.25;;;;;;;;;;5074499;28;20269;-62
2023/01/19 04:19:26;;;;;;;14.15;10.07;;;;;;;;;;5070404;28;20059;-62
2023/01/19 04:21:54;;;;;;;13.70;9.98;;;;;;;;;;5073926;28;20068;-62
2023/01/19 04:24:20;;;;;;;12.93;8.95;;;;;;;;;;5072745;28;20398;-62
2023/01/19 04:26:46;;;;;;;10.80;9.23;;;;;;;;;;5071578;28;20094;-62
2023/01/19 04:29:13;;;;;;;12.95;8.15;;;;;;;;;;5071970;28;20511;-62
2023/01/19 04:31:39;;;;;;;11.93;8.77;;;;;;;;;;5072555;28;20050;-62
2023/01/19 04:34:05;;;;;;;11.80;8.07;;;;;;;;;;5070403;28;20112;-62
2023/01/19 04:36:31;;;;;;;11.82;8.35;;;;;;;;;;5073882;28;20072;-62
2023/01/19 04:38:57;;;;;;;11.35;7.18;;;;;;;;;;5069801;28;20464;-62
2023/01/19 04:41:23;;;;;;;9.85;6.95;;;;;;;;;;5066873;28;20039;-62
2023/01/19 04:43:49;;;;;;;10.23;7.53;;;;;;;;;;5071499;28;20128;-62
2023/01/19 04:46:15;;;;;;;10.02;7.32;;;;;;;;;;5072379;28;20033;-62
2023/01/19 04:48:41;;;;;;;9.35;7.18;;;;;;;;;;5068531;28;20064;-62
2023/01/19 04:51:07;;;;;;;12.57;7.13;;;;;;;;;;5072350;28;20067;-62
2023/01/19 04:53:34;;;;;;;8.50;6.90;;;;;;;;;;5073164;28;20147;-62
2023/01/19 04:56:00;;;;;;;11.05;6.88;;;;;;;;;;5069560;28;21253;-62
2023/01/19 04:58:26;;;;;;;10.25;7.18;;;;;;;;;;5069058;28;20143;-62
2023/01/19 05:00:52;;;;;;;10.38;6.90;;;;;;;;;;5069562;28;20066;-62
2023/01/19 05:03:18;;;;;;;9.98;6.72;;;;;;;;;;5070350;28;20123;-62
2023/01/19 05:05:45;;;;;;;10.30;6.93;;;;;;;;;;5071063;28;20037;-62
2023/01/19 05:08:11;;;;;;;9.95;6.40;;;;;;;;;;5068942;28;20044;-62
2023/01/19 05:10:37;;;;;;;10.70;7.13;;;;;;;;;;5065665;28;20044;-62
2023/01/19 05:13:04;;;;;;;13.70;8.57;;;;;;;;;;5070454;28;20032;-62
2023/01/19 05:15:30;;;;;;;18.05;11.43;;;;;;;;;;5072719;28;20075;-62
2023/01/19 05:17:56;;;;;;;20.42;11.60;;;;;;;;;;5068512;28;20036;-62
2023/01/19 05:20:23;;;;;;;23.70;13.60;;;;;;;;;;5069521;28;20037;-62
2023/01/19 05:22:49;;;;;;;23.48;13.15;;;;;;;;;;5069814;28;20414;-62
2023/01/19 05:25:15;;;;;;;24.48;13.70;;;;;;;;;;5070897;28;20033;-62
2023/01/19 05:27:41;;;;;;;22.67;12.82;;;;;;;;;;5072156;28;20032;-62
2023/01/19 05:30:08;;;;;;;25.25;14.07;;;;;;;;;;5072015;28;20044;-62
2023/01/19 05:32:34;;;;;;;24.58;13.63;;;;;;;;;;5071628;28;20505;-62
2023/01/19 05:35:00;;;;;;;23.73;14.05;;;;;;;;;;5070280;28;20044;-62
2023/01/19 05:37:26;;;;;;;22.17;12.85;;;;;;;;;;5069868;28;20048;-63
2023/01/19 05:39:53;;;;;;;22.55;12.05;;;;;;;;;;5071370;28;20036;-62
2023/01/19 05:42:19;;;;;;;21.70;11.57;;;;;;;;;;5070436;28;20044;-62
2023/01/19 05:44:45;;;;;;;16.38;9.80;;;;;;;;;;5072078;28;20044;-62
2023/01/19 05:47:11;;;;;;;15.55;8.30;;;;;;;;;;5069052;28;20040;-63
2023/01/19 05:49:37;;;;;;;17.20;8.07;;;;;;;;;;5067791;28;20032;-62
2023/01/19 05:52:04;;;;;;;10.10;5.60;;;;;;;;;;5068313;28;20417;-62
2023/01/19 05:54:30;;;;;;;10.77;4.85;;;;;;;;;;5071132;28;20040;-63
2023/01/19 05:56:56;;;;;;;9.60;3.92;;;;;;;;;;5070302;28;20054;-62
2023/01/19 05:59:23;;;;;;;8.52;3.85;;;;;;;;;;5061653;28;20703;-62
2023/01/19 06:01:52;;;;;;;10.98;3.67;;;;;;;;;;5068763;28;20131;-62
2023/01/19 06:04:18;;;;;;;7.50;3.40;;;;;;;;;;5064619;28;20075;-62
2023/01/19 06:06:46;;;;;;;9.07;3.15;;;;;;;;;;5069475;28;20041;-62
2023/01/19 06:09:12;;;;;;;11.30;3.28;;;;;;;;;;5070498;28;20055;-63
2023/01/19 06:11:38;;;;;;;9.48;3.22;;;;;;;;;;5069285;28;20045;-62
2023/01/19 06:14:04;;;;;;;4.45;2.80;;;;;;;;;;5070957;28;20605;-63
2023/01/19 06:16:30;;;;;;;11.93;3.08;;;;;;;;;;5071823;28;20124;-63
2023/01/19 06:18:56;;;;;;;6.47;2.40;;;;;;;;;;5069044;28;20041;-63
2023/01/19 06:21:22;;;;;;;9.50;2.13;;;;;;;;;;5064312;28;20444;-62
2023/01/19 06:23:48;;;;;;;5.75;1.70;;;;;;;;;;5071456;28;20097;-63
2023/01/19 06:26:14;;;;;;;7.22;1.60;;;;;;;;;;5071787;28;20045;-63
2023/01/19 06:28:40;;;;;;;6.90;1.80;;;;;;;;;;5068341;28;20490;-62
2023/01/19 06:31:06;;;;;;;5.50;1.48;;;;;;;;;;5069443;28;20032;-62
2023/01/19 06:33:32;;;;;;;4.90;1.63;;;;;;;;;;5070274;28;20032;-62
2023/01/19 06:35:58;;;;;;;5.55;1.40;;;;;;;;;;5067368;28;20492;-62
2023/01/19 06:38:24;;;;;;;5.45;1.48;;;;;;;;;;5069860;28;20032;-63
2023/01/19 06:40:52;;;;;;;4.22;1.73;;;;;;;;;;5068228;28;20040;-63
2023/01/19 06:43:19;;;;;;;8.57;1.50;;;;;;;;;;5067136;28;20105;-62
2023/01/19 06:45:45;;;;;;;8.82;1.50;;;;;;;;;;5070676;28;20409;-62
2023/01/19 06:48:11;;;;;;;3.80;1.05;;;;;;;;;;5069569;28;20440;-63
2023/01/19 06:50:37;;;;;;;6.75;1.30;;;;;;;;;;5061410;28;20036;-62
2023/01/19 06:53:03;;;;;;;6.10;1.40;;;;;;;;;;5060572;28;20098;-63
2023/01/19 06:55:29;;;;;;;3.47;1.10;;;;;;;;;;5068899;28;20406;-62
2023/01/19 06:57:56;;;;;;;7.35;1.27;;;;;;;;;;5062231;28;20124;-62
2023/01/19 07:00:23;;;;;;;5.50;1.17;;;;;;;;;;5069291;28;20041;-63
2023/01/19 07:02:49;;;;;;;2.95;1.10;;;;;;;;;;5068500;28;20056;-62
2023/01/19 07:05:15;;;;;;;6.30;1.08;;;;;;;;;;5066302;28;20436;-62
2023/01/19 07:07:42;;;;;;;5.07;1.75;;;;;;;;;;5068743;28;20557;-62
2023/01/19 07:10:10;;;;;;;4.22;0.90;;;;;;;;;;5064133;28;20052;-62
2023/01/19 07:12:36;;;;;;;3.22;1.00;;;;;;;;;;5066010;28;20040;-62
2023/01/19 07:15:02;;;;;;;6.20;1.20;;;;;;;;;;5067644;28;20489;-63
2023/01/19 07:17:28;;;;;;;8.13;1.48;;;;;;;;;;5069347;28;20090;-63
2023/01/19 07:19:54;;;;;;;3.10;1.40;;;;;;;;;;5063077;28;20040;-63
2023/01/19 07:22:20;;;;;;;6.53;1.58;;;;;;;;;;5067117;28;20486;-62
2023/01/19 07:24:46;;;;;;;5.95;1.20;;;;;;;;;;5069786;28;20071;-62
2023/01/19 07:27:12;;;;;;;7.68;1.60;;;;;;;;;;5069224;28;20029;-62
2023/01/19 07:29:38;;;;;;;5.97;1.80;;;;;;;;;;5066654;28;20111;-62
2023/01/19 07:32:05;;;;;;;7.93;1.33;;;;;;;;;;5067918;28;20253;-63
2023/01/19 07:34:31;;;;;;;9.38;2.15;;;;;;;;;;5070613;28;20040;-62
2023/01/19 07:36:57;;;;;;;7.90;1.60;;;;;;;;;;5065384;28;20048;-63
2023/01/19 07:39:23;;;;;;;9.48;1.40;;;;;;;;;;5067325;28;20171;-62
2023/01/19 07:41:49;;;;;;;6.32;1.70;;;;;;;;;;5068690;28;20079;-63
2023/01/19 07:44:15;;;;;;;12.02;1.42;;;;;;;;;;5071279;28;20197;-63
2023/01/19 07:46:42;;;;;;;10.27;2.28;;;;;;;;;;5074221;28;20049;-63
2023/01/19 07:49:08;;;;;;;9.88;2.35;;;;;;;;;;5071605;28;20482;-63
2023/01/19 07:51:35;;;;;;;8.60;2.20;;;;;;;;;;5071656;28;20505;-63
2023/01/19 07:54:01;;;;;;;8.48;1.17;;;;;;;;;;5071159;28;20048;-63
2023/01/19 07:56:29;;;;;;;11.23;1.85;;;;;;;;;;5071140;28;20127;-63
2023/01/19 07:58:55;;;;;;;8.70;1.60;;;;;;;;;;5071884;28;20036;-62
2023/01/19 08:01:22;;;;;;;9.02;1.95;;;;;;;;;;5064350;28;20119;-62
2023/01/19 08:03:48;;;;;;;10.23;1.58;;;;;;;;;;5068846;28;20049;-63
2023/01/19 08:06:19;;;;;;;5.95;1.60;;;;;;;;;;5064214;28;20056;-63
2023/01/19 08:08:45;;;;;;;;;;;;;;;;;;5069615;28;20040;-63
2023/01/19 08:11:11;;;;;;;10.27;1.45;;;;;;;;;;5069971;28;19921;-62
2023/01/19 08:13:37;;;;;;;8.60;1.38;;;;;;;;;;5071005;28;20041;-63
2023/01/19 08:16:03;;;;;;;8.32;1.70;;;;;;;;;;5072351;28;20029;-62
2023/01/19 08:18:29;;;;;;;7.32;1.70;;;;;;;;;;5072449;28;20043;-63
2023/01/19 08:20:57;;;;;;;9.23;1.55;;;;;;;;;;5071935;28;20048;-62
2023/01/19 08:23:24;;;;;;;11.68;2.03;;;;;;;;;;5072326;28;20048;-62
2023/01/19 08:25:50;;;;;;;11.15;1.83;;;;;;;;;;5072063;28;20044;-62
2023/01/19 08:28:16;;;;;;;10.75;2.05;;;;;;;;;;5072469;28;20036;-63
2023/01/19 08:30:43;;;;;;;12.02;1.80;;;;;;;;;;5073603;28;20090;-62
2023/01/19 08:33:10;;;;;;;11.43;2.95;;;;;;;;;;5072654;28;20059;-63
2023/01/19 08:35:37;;;;;;;16.33;2.92;;;;;;;;;;5071932;28;20071;-62
2023/01/19 08:38:04;;;;;;;12.88;2.28;;;;;;;;;;5062775;28;20433;-62
2023/01/19 08:40:33;;;;;;;8.05;1.65;;;;;;;;;;5058744;28;20068;-62
2023/01/19 08:43:04;;;;;;;12.25;1.98;;;;;;;;;;5066052;28;20116;-62
2023/01/19 08:45:30;;;;;;;12.35;2.40;;;;;;;;;;5064329;28;20045;-63
2023/01/19 08:47:59;;;;;;;14.63;2.03;;;;;;;;;;5070318;28;20033;-62
2023/01/19 08:50:26;;;;;;;13.98;2.00;;;;;;;;;;5067428;28;20051;-62
2023/01/19 08:52:52;;;;;;;11.60;1.92;;;;;;;;;;5068950;28;20037;-63
2023/01/19 08:55:18;;;;;;;11.82;1.85;;;;;;;;;;5069490;22;20064;-67
2023/01/19 08:57:44;;;;;;;11.75;1.80;;;;;;;;;;5029903;28;20029;-66
2023/01/19 09:00:10;;;;;;;15.55;2.08;;;;;;;;;;5030419;28;20029;-67
2023/01/19 09:02:36;;;;;;;11.55;1.90;;;;;;;;;;5030627;28;20046;-66
2023/01/19 09:05:03;;;;;;;9.15;1.73;;;;;;;;;;5035734;28;20041;-67
2023/01/19 09:07:29;;;;;;;11.30;2.20;;;;;;;;;;5031681;28;20570;-66
2023/01/19 09:09:55;;;;;;;9.35;1.77;;;;;;;;;;5029223;28;20556;-67
2023/01/19 09:12:22;;;;;;;13.60;1.83;;;;;;;;;;5027199;28;20042;-67
2023/01/19 09:14:48;;;;;;;11.55;1.70;;;;;;;;;;5027175;28;20037;-67
2023/01/19 09:17:14;;;;;;;9.40;1.77;;;;;;;;;;5027032;28;20037;-67
2023/01/19 09:19:40;;;;;;;12.32;2.28;;;;;;;;;;5028423;28;20877;-67
2023/01/19 09:22:06;;;;;;;10.45;1.60;;;;;;;;;;5024988;28;20049;-66
2023/01/19 09:24:33;;;;;;;8.88;1.70;;;;;;;;;;5029643;28;20067;-66
2023/01/19 09:26:59;;;;;;;14.85;2.35;;;;;;;;;;5025410;28;20084;-67
2023/01/19 09:29:25;;;;;;;8.82;2.13;;;;;;;;;;5027418;28;20042;-67
2023/01/19 09:31:51;;;;;;;11.02;2.38;;;;;;;;;;5032081;28;20045;-67
2023/01/19 09:34:18;;;;;;;14.70;2.25;;;;;;;;;;5030507;28;20453;-67
2023/01/19 09:36:45;;;;;;;10.07;1.80;;;;;;;;;;5031306;28;20061;-67
2023/01/19 09:39:11;;;;;;;10.55;1.67;;;;;;;;;;5032578;28;20041;-67
2023/01/19 09:41:38;;;;;;;16.02;2.30;;;;;;;;;;5032222;28;20048;-67
2023/01/19 09:44:04;;;;;;;11.13;1.98;;;;;;;;;;5031911;28;20116;-67
2023/01/19 09:46:34;;;;;;;13.32;1.85;;;;;;;;;;5031916;28;20044;-67
2023/01/19 09:49:05;;;;;;;10.13;1.70;;;;;;;;;;5030843;28;20565;-67
2023/01/19 09:51:37;;;;;;;12.75;2.40;;;;;;;;;;5031197;28;20041;-67
2023/01/19 09:54:17;;;;;;;13.82;1.75;;;;;;;;;;5030545;28;20048;-67
2023/01/19 09:56:44;;;;;;;12.43;1.85;;;;;;;;;;5031734;28;20045;-67
2023/01/19 09:59:33;;;;;;;11.02;1.73;;;;;;;;;;5031755;28;20038;-67
2023/01/19 10:02:02;;;;;;;15.77;2.63;;;;;;;;;;5024362;28;20110;-67
2023/01/19 10:04:33;;;;;;;8.40;2.03;;;;;;;;;;5030955;28;20567;-67
2023/01/19 10:07:05;;;;;;;13.88;2.55;;;;;;;;;;5030540;28;20132;-67
2023/01/19 10:09:33;;;;;;;9.38;2.20;;;;;;;;;;5031511;28;20034;-67
2023/01/19 10:12:08;;;;;;;9.07;2.42;;;;;;;;;;5020028;28;20133;-67
2023/01/19 10:14:39;;;;;;;11.25;2.10;;;;;;;;;;5023864;28;20067;-67
2023/01/19 10:17:30;;;;;;;14.90;2.05;;;;;;;;;;5027328;28;20033;-67
2023/01/19 10:19:57;;;;;;;15.05;2.28;;;;;;;;;;5027964;28;20029;-67
2023/01/19 10:22:24;;;;;;;9.95;1.75;;;;;;;;;;5030005;28;20172;-67
2023/01/19 10:24:53;;;;;;;14.93;2.33;;;;;;;;;;5029110;28;20041;-67
2023/01/19 10:27:22;;;;;;;10.13;1.73;;;;;;;;;;5030002;28;20045;-68
2023/01/19 10:29:48;;;;;;;14.38;2.28;;;;;;;;;;5027328;28;20041;-67
2023/01/19 10:32:20;;;;;;;6.88;1.70;;;;;;;;;;5029534;28;20037;-67
2023/01/19 10:34:46;;;;;;;12.85;2.00;;;;;;;;;;5031567;28;20041;-67
2023/01/19 10:37:32;;;;;;;8.32;1.67;;;;;;;;;;5027329;28;20434;-67
2023/01/19 10:40:21;;;;;;;9.52;1.77;;;;;;;;;;5028000;28;20045;-67
2023/01/19 10:42:47;;;;;;;8.50;1.40;;;;;;;;;;5029900;28;20045;-67
2023/01/19 10:45:15;;;;;;;10.82;1.45;;;;;;;;;;5024001;28;20497;-67
2023/01/19 10:47:42;;;;;;;10.73;1.80;;;;;;;;;;5028797;28;20033;-66
2023/01/19 10:50:27;;;;;;;8.80;1.70;;;;;;;;;;5030698;28;20069;-67
2023/01/19 10:52:55;;;;;;;11.82;1.58;;;;;;;;;;5026393;28;20074;-67
2023/01/19 10:55:24;;;;;;;11.35;1.50;;;;;;;;;;5028113;28;20059;-67
2023/01/19 10:57:51;;;;;;;9.63;1.75;;;;;;;;;;5025501;28;20050;-67
2023/01/19 11:00:31;;;;;;;13.63;1.77;;;;;;;;;;5020733;28;20562;-67
2023/01/19 11:02:57;;;;;;;4.90;1.40;;;;;;;;;;5035094;28;20090;-67
2023/01/19 11:05:25;;;;;;;11.38;2.40;;;;;;;;;;5035281;28;20124;-67
2023/01/19 11:07:51;;;;;;;10.77;1.83;;;;;;;;;;5034061;28;20131;-67
2023/01/19 11:10:19;;;;;;;11.65;1.85;;;;;;;;;;5033810;28;20418;-67
2023/01/19 11:13:07;;;;;;;9.75;1.52;;;;;;;;;;5033610;28;20120;-67
2023/01/19 11:15:35;;;;;;;13.10;2.35;;;;;;;;;;5028720;28;20049;-67
2023/01/19 11:18:02;;;;;;;9.45;2.10;;;;;;;;;;5033996;28;20107;-67
2023/01/19 11:20:30;;;;;;;11.55;2.00;;;;;;;;;;5033794;28;20037;-67
2023/01/19 11:23:05;;;;;;;15.40;1.75;;;;;;;;;;5034315;28;20041;-67
2023/01/19 11:25:32;;;;;;;10.63;1.92;;;;;;;;;;5034938;28;20056;-67
2023/01/19 11:27:58;;;;;;;9.82;1.73;;;;;;;;;;5033659;28;20108;-67
2023/01/19 11:30:25;;;;;;;6.45;1.58;;;;;;;;;;5031706;28;20045;-67
2023/01/19 11:32:52;;;;;;;15.35;1.75;;;;;;;;;;5034236;28;20049;-67
2023/01/19 11:35:28;;;;;;;9.52;1.83;;;;;;;;;;5034483;28;20073;-67
2023/01/19 11:38:12;;;;;;;10.63;1.90;;;;;;;;;;5033833;28;20042;-67
2023/01/19 11:40:39;;;;;;;9.52;2.20;;;;;;;;;;5029903;28;20048;-67
2023/01/19 11:43:05;;;;;;;12.27;1.75;;;;;;;;;;5031469;28;20446;-67
2023/01/19 11:45:32;;;;;;;11.02;1.88;;;;;;;;;;5029487;28;20117;-67
2023/01/19 11:48:02;;;;;;;4.93;1.60;;;;;;;;;;5032789;28;20487;-67
2023/01/19 11:50:31;;;;;;;9.65;1.50;;;;;;;;;;5033411;28;20037;-67
2023/01/19 11:53:00;;;;;;;9.02;1.75;;;;;;;;;;5032920;28;20091;-67
2023/01/19 11:55:29;;;;;;;10.85;1.50;;;;;;;;;;5033370;28;20033;-67
2023/01/19 11:57:55;;;;;;;8.60;1.35;;;;;;;;;;5034927;28;20049;-67
2023/01/19 12:00:34;;;;;;;8.48;1.38;;;;;;;;;;5033527;28;20037;-67
2023/01/19 12:03:14;;;;;;;9.98;1.33;;;;;;;;;;5030732;28;20049;-67
2023/01/19 12:05:42;;;;;;;9.18;1.17;;;;;;;;;;5033773;28;20041;-67
2023/01/19 12:08:13;;;;;;;7.18;1.70;;;;;;;;;;5027206;28;20123;-67
2023/01/19 12:10:42;;;;;;;5.32;1.00;;;;;;;;;;5032858;28;20483;-67
2023/01/19 12:13:15;;;;;;;8.55;1.42;;;;;;;;;;5029999;28;20052;-67
2023/01/19 12:15:43;;;;;;;7.10;1.17;;;;;;;;;;5029771;28;20509;-67
2023/01/19 12:18:15;;;;;;;5.72;1.20;;;;;;;;;;5031419;28;20033;-67
2023/01/19 12:20:44;;;;;;;4.00;0.93;;;;;;;;;;5030044;28;20099;-67
2023/01/19 12:23:10;;;;;;;8.82;1.33;;;;;;;;;;5030931;28;20048;-67
2023/01/19 12:25:51;;;;;;;6.20;1.10;;;;;;;;;;5033741;28;20038;-67
2023/01/19 12:28:18;;;;;;;6.65;1.17;;;;;;;;;;5033691;28;20037;-67
2023/01/19 12:30:44;;;;;;;6.78;1.10;;;;;;;;;;5032130;28;20084;-67
2023/01/19 12:33:20;;;;;;;3.47;1.02;;;;;;;;;;5031030;28;20045;-67
2023/01/19 12:35:52;;;;;;;9.15;1.33;;;;;;;;;;5030534;28;20072;-68
2023/01/19 12:38:23;;;;;;;6.43;0.90;;;;;;;;;;5030179;28;20037;-68
2023/01/19 12:40:49;;;;;;;3.50;1.00;;;;;;;;;;5031210;28;20033;-68
2023/01/19 12:43:15;;;;;;;9.52;1.40;;;;;;;;;;5030583;28;20411;-67
2023/01/19 12:45:43;;;;;;;5.38;1.80;;;;;;;;;;5031350;28;20471;-67
2023/01/19 12:48:23;;;;;;;7.00;1.10;;;;;;;;;;5032335;28;20045;-67
2023/01/19 12:50:49;;;;;;;5.22;1.13;;;;;;;;;;5026606;28;20045;-67
2023/01/19 12:53:16;;;;;;;9.02;1.20;;;;;;;;;;5028504;28;20125;-67
2023/01/19 12:55:45;;;;;;;6.57;1.27;;;;;;;;;;5032214;28;20029;-66
2023/01/19 12:58:21;;;;;;;7.30;1.27;;;;;;;;;;5029251;28;20499;-67
2023/01/19 13:00:48;;;;;;;9.10;1.35;;;;;;;;;;5032493;28;20372;-66
2023/01/19 13:03:14;;;;;;;7.13;1.30;;;;;;;;;;5030150;28;20041;-67
2023/01/19 13:05:40;;;;;;;3.15;0.93;;;;;;;;;;5032966;28;20679;-66
2023/01/19 13:08:06;;;;;;;7.15;1.15;;;;;;;;;;5029849;28;20042;-66
2023/01/19 13:10:51;;;;;;;7.35;1.20;;;;;;;;;;5031128;28;20045;-67
2023/01/19 13:13:19;;;;;;;5.35;1.17;;;;;;;;;;5029412;28;20518;-67
2023/01/19 13:15:45;;;;;;;7.82;1.20;;;;;;;;;;5029493;28;20076;-67
2023/01/19 13:18:23;;;;;;;6.70;1.30;;;;;;;;;;5032890;28;20037;-67
2023/01/19 13:20:56;;;;;;;7.72;0.88;;;;;;;;;;5030364;28;20045;-67
2023/01/19 13:23:29;;;;;;;5.45;1.10;;;;;;;;;;5032481;28;20041;-67
2023/01/19 13:26:00;;;;;;;7.53;1.40;;;;;;;;;;5030869;28;20128;-67
2023/01/19 13:28:31;;;;;;;5.35;0.98;;;;;;;;;;5024581;28;20046;-66
2023/01/19 13:30:58;;;;;;;7.68;1.08;;;;;;;;;;5031014;28;20045;-66
2023/01/19 13:33:26;;;;;;;3.83;1.13;;;;;;;;;;5032379;28;20048;-67
2023/01/19 13:35:53;;;;;;;5.60;1.10;;;;;;;;;;5029917;28;20038;-67
2023/01/19 13:38:19;;;;;;;10.90;1.00;;;;;;;;;;5032283;28;20216;-66
2023/01/19 13:40:45;;;;;;;4.40;0.95;;;;;;;;;;5029990;28;20099;-67
2023/01/19 13:43:20;;;;;;;9.40;1.50;;;;;;;;;;5029672;28;20071;-66
2023/01/19 13:45:48;;;;;;;6.38;1.67;;;;;;;;;;5031024;28;20120;-67
2023/01/19 13:48:21;;;;;;;6.95;1.30;;;;;;;;;;5032235;28;20406;-66
2023/01/19 13:51:07;;;;;;;7.57;1.20;;;;;;;;;;5029593;28;20041;-66
2023/01/19 13:53:34;;;;;;;6.45;1.35;;;;;;;;;;5028953;28;20046;-67
2023/01/19 13:56:07;;;;;;;5.20;1.13;;;;;;;;;;5031871;28;20041;-66
2023/01/19 13:58:33;;;;;;;5.60;0.85;;;;;;;;;;5031815;28;20112;-66
2023/01/19 14:00:59;;;;;;;6.53;1.25;;;;;;;;;;5029238;28;20388;-66
2023/01/19 14:03:25;;;;;;;4.40;0.90;;;;;;;;;;5028856;28;20044;-66
2023/01/19 14:05:52;;;;;;;6.82;0.60;;;;;;;;;;5031425;28;20052;-66
2023/01/19 14:08:18;;;;;;;6.00;1.10;;;;;;;;;;5025977;28;20176;-66
2023/01/19 14:11:00;;;;;;;4.20;1.05;;;;;;;;;;5028156;28;20110;-66
2023/01/19 14:13:30;;;;;;;2.85;0.82;;;;;;;;;;5029746;28;20495;-66
2023/01/19 14:16:00;;;;;;;4.50;0.80;;;;;;;;;;5031565;28;20072;-66
2023/01/19 14:18:28;;;;;;;5.00;0.80;;;;;;;;;;5025749;28;20502;-66
2023/01/19 14:21:00;;;;;;;5.28;0.73;;;;;;;;;;5029564;28;20053;-66
2023/01/19 14:23:25;;;;;;;;;;;;;;;;;;5030643;28;20045;-66
2023/01/19 14:25:51;;;;;;;3.17;0.80;;;;;;;;;;5028701;28;19917;-66
2023/01/19 14:28:27;;;;;;;5.22;1.02;;;;;;;;;;5031652;28;20045;-66
2023/01/19 14:31:03;;;;;;;6.13;1.00;;;;;;;;;;5030124;28;20120;-66
2023/01/19 14:33:39;;;;;;;5.03;0.90;;;;;;;;;;5028971;28;20041;-67
2023/01/19 14:36:14;;;;;;;4.35;1.35;;;;;;;;;;5023411;28;20048;-67
2023/01/19 14:38:44;;;;;;;3.22;0.82;;;;;;;;;;5030910;28;20041;-66
2023/01/19 14:41:10;;;;;;;4.15;1.00;;;;;;;;;;5029797;28;20491;-67
2023/01/19 14:43:37;;;;;;;4.50;0.95;;;;;;;;;;5029202;28;20083;-67
2023/01/19 14:46:03;;;;;;;6.88;1.10;;;;;;;;;;5031497;28;20048;-67
2023/01/19 14:48:30;;;;;;;4.10;0.80;;;;;;;;;;5030346;28;20049;-67
2023/01/19 14:51:03;;;;;;;6.20;1.05;;;;;;;;;;5027498;28;20053;-67